createdAt,value
2018-03-19T00:00:39.246Z,99249.43
2018-03-19T00:03:06.868Z,99252.34
2018-03-19T00:05:34.517Z,99252.40
2018-03-19T00:08:02.167Z,99245.51
2018-03-19T00:10:29.763Z,99244.25
2018-03-19T00:12:57.335Z,99257.68
2018-03-19T00:15:24.959Z,99259.49
2018-03-19T00:17:52.569Z,99253.27
2018-03-19T00:20:20.280Z,99249.81
2018-03-19T00:22:47.842Z,99240.33
2018-03-19T00:25:15.598Z,99235.45
2018-03-19T00:27:43.152Z,99238.34
2018-03-19T00:30:10.720Z,99248.72
2018-03-19T00:32:38.364Z,99253.56
2018-03-19T00:35:05.935Z,99252.83
2018-03-19T00:37:33.501Z,99247.03
2018-03-19T00:40:01.160Z,99246.51
2018-03-19T00:42:28.823Z,99255.21
2018-03-19T00:44:56.485Z,99252.90
2018-03-19T00:47:24.074Z,99255.92
2018-03-19T00:49:51.808Z,99249.91
2018-03-19T00:52:19.474Z,99255.74
2018-03-19T00:54:47.128Z,99254.19
2018-03-19T00:57:14.792Z,99263.60
2018-03-19T00:59:42.471Z,99259.05
2018-03-19T01:02:10.095Z,99255.03
2018-03-19T01:04:37.652Z,99255.30
2018-03-19T01:07:05.242Z,99244.66
2018-03-19T01:09:32.861Z,99248.23
2018-03-19T01:12:00.565Z,99249.99
2018-03-19T01:14:28.234Z,99244.98
2018-03-19T01:16:55.869Z,99240.35
2018-03-19T01:19:23.440Z,99236.48
2018-03-19T01:21:51.008Z,99231.47
2018-03-19T01:24:18.602Z,99234.09
2018-03-19T01:26:46.189Z,99244.23
2018-03-19T01:29:13.764Z,99244.66
2018-03-19T01:31:41.467Z,99229.98
2018-03-19T01:34:09.050Z,99234.34
2018-03-19T01:36:36.626Z,99247.11
2018-03-19T01:39:04.422Z,99233.50
2018-03-19T01:41:31.986Z,99237.30
2018-03-19T01:43:59.576Z,99235.73
2018-03-19T01:46:27.218Z,99232.20
2018-03-19T01:48:54.795Z,99237.73
2018-03-19T01:51:22.365Z,99237.16
2018-03-19T01:53:49.974Z,99229.56
2018-03-19T01:56:17.559Z,99230.15
2018-03-19T01:58:45.143Z,99230.48
2018-03-19T02:01:12.782Z,99222.41
2018-03-19T02:03:40.444Z,99215.73
2018-03-19T02:06:08.110Z,99222.15
2018-03-19T02:08:35.735Z,99219.99
2018-03-19T02:11:03.439Z,99222.95
2018-03-19T02:13:31.109Z,99221.55
2018-03-19T02:15:58.766Z,99234.62
2018-03-19T02:18:26.422Z,99219.16
2018-03-19T02:20:53.999Z,99211.08
2018-03-19T02:23:21.628Z,99209.28
2018-03-19T02:25:49.201Z,99218.50
2018-03-19T02:28:16.775Z,99215.86
2018-03-19T02:30:44.387Z,99214.52
2018-03-19T02:33:11.969Z,99210.63
2018-03-19T02:35:39.661Z,99211.00
2018-03-19T02:38:07.317Z,99219.89
2018-03-19T02:40:34.892Z,99220.79
2018-03-19T02:43:02.471Z,99220.30
2018-03-19T02:45:30.081Z,99231.02
2018-03-19T02:47:57.758Z,99237.48
2018-03-19T02:50:25.344Z,99237.15
2018-03-19T02:52:53.083Z,99223.25
2018-03-19T02:55:20.733Z,99223.34
2018-03-19T02:57:48.314Z,99215.05
2018-03-19T03:00:16.001Z,99220.38
2018-03-19T03:02:43.590Z,99215.52
2018-03-19T03:05:11.152Z,99216.94
2018-03-19T03:07:38.757Z,99215.20
2018-03-19T03:10:06.524Z,99222.18
2018-03-19T03:12:34.163Z,99228.59
2018-03-19T03:15:01.785Z,99219.30
2018-03-19T03:17:29.373Z,99205.23
2018-03-19T03:19:57.154Z,99182.94
2018-03-19T03:22:25.040Z,99192.38
2018-03-19T03:24:52.684Z,99202.34
2018-03-19T03:27:20.348Z,99201.86
2018-03-19T03:29:47.997Z,99204.81
2018-03-19T03:32:15.673Z,99199.41
2018-03-19T03:34:43.320Z,99199.50
2018-03-19T03:37:11.194Z,99207.91
2018-03-19T03:39:38.781Z,99220.32
2018-03-19T03:42:06.538Z,99224.76
2018-03-19T03:44:34.156Z,99217.03
2018-03-19T03:47:01.858Z,99201.05
2018-03-19T03:49:29.434Z,99199.10
2018-03-19T03:51:57.184Z,99198.61
2018-03-19T03:54:24.842Z,99191.66
2018-03-19T03:56:52.434Z,99190.86
2018-03-19T03:59:20.098Z,99201.97
2018-03-19T04:01:47.678Z,99205.45
2018-03-19T04:04:15.299Z,99217.04
2018-03-19T04:06:42.951Z,99225.78
2018-03-19T04:09:10.527Z,99242.73
2018-03-19T04:11:38.103Z,99254.84
2018-03-19T04:14:05.707Z,99261.92
2018-03-19T04:16:33.404Z,99263.75
2018-03-19T04:19:01.062Z,99260.57
2018-03-19T04:21:28.688Z,99248.00
2018-03-19T04:23:56.289Z,99251.27
2018-03-19T04:26:23.871Z,99249.16
2018-03-19T04:28:51.924Z,99247.09
2018-03-19T04:31:19.573Z,99239.84
2018-03-19T04:33:47.148Z,99244.55
2018-03-19T04:36:14.764Z,99240.87
2018-03-19T04:38:42.548Z,99239.80
2018-03-19T04:41:10.124Z,99237.02
2018-03-19T04:43:37.729Z,99225.48
2018-03-19T04:46:05.338Z,99223.84
2018-03-19T04:48:32.918Z,99243.77
2018-03-19T04:51:00.525Z,99240.30
2018-03-19T04:53:28.114Z,99243.09
2018-03-19T04:55:55.696Z,99265.20
2018-03-19T04:58:23.314Z,99265.45
2018-03-19T05:00:51.121Z,99277.16
2018-03-19T05:03:18.683Z,99280.19
2018-03-19T05:05:46.298Z,99279.55
2018-03-19T05:08:13.872Z,99278.84
2018-03-19T05:10:41.757Z,99281.88
2018-03-19T05:13:09.425Z,99277.69
2018-03-19T05:15:37.096Z,99277.50
2018-03-19T05:18:04.824Z,99276.27
2018-03-19T05:20:32.423Z,99289.78
2018-03-19T05:23:00.255Z,99264.58
2018-03-19T05:25:27.827Z,99263.17
2018-03-19T05:27:55.427Z,99267.80
2018-03-19T05:30:23.086Z,99288.31
2018-03-19T05:32:50.673Z,99277.19
2018-03-19T05:35:18.285Z,99293.17
2018-03-19T05:37:45.868Z,99298.78
2018-03-19T05:40:13.454Z,99296.53
2018-03-19T05:42:41.074Z,99313.27
2018-03-19T05:45:08.654Z,99289.59
2018-03-19T05:47:36.240Z,99296.64
2018-03-19T05:50:03.956Z,99293.25
2018-03-19T05:52:31.538Z,99288.95
2018-03-19T05:54:59.281Z,99290.27
2018-03-19T05:57:26.896Z,99286.48
2018-03-19T05:59:54.485Z,99307.77
2018-03-19T06:02:22.094Z,99301.49
2018-03-19T06:04:49.887Z,99307.09
2018-03-19T06:07:17.473Z,99303.97
2018-03-19T06:09:45.045Z,99300.90
2018-03-19T06:12:12.651Z,99285.47
2018-03-19T06:14:40.360Z,99309.44
2018-03-19T06:17:07.934Z,99309.45
2018-03-19T06:19:35.695Z,99302.41
2018-03-19T06:22:03.568Z,99313.78
2018-03-19T06:24:31.142Z,99310.22
2018-03-19T06:26:58.759Z,99302.77
2018-03-19T06:29:26.541Z,99303.70
2018-03-19T06:31:54.110Z,99311.78
2018-03-19T06:34:21.744Z,99301.80
2018-03-19T06:36:49.320Z,99284.09
2018-03-19T06:39:16.895Z,99281.62
2018-03-19T06:41:44.512Z,99299.06
2018-03-19T06:44:18.554Z,99282.91
2018-03-19T06:46:46.186Z,99300.36
2018-03-19T06:49:13.768Z,99302.91
2018-03-19T06:51:41.350Z,99303.93
2018-03-19T06:54:08.979Z,99305.02
2018-03-19T06:56:36.958Z,99299.39
2018-03-19T06:59:04.645Z,99299.39
2018-03-19T07:01:32.343Z,99308.20
2018-03-19T07:03:59.952Z,99304.91
2018-03-19T07:06:27.675Z,99285.45
2018-03-19T07:08:55.493Z,99288.65
2018-03-19T07:11:23.151Z,99291.70
2018-03-19T07:13:50.807Z,99289.72
2018-03-19T07:16:18.485Z,99287.83
2018-03-19T07:18:46.149Z,99283.24
2018-03-19T07:21:13.746Z,99279.31
2018-03-19T07:23:41.458Z,99274.12
2018-03-19T07:26:09.032Z,99277.66
2018-03-19T07:28:36.793Z,99280.80
2018-03-19T07:31:04.454Z,99280.75
2018-03-19T07:33:32.120Z,99277.63
2018-03-19T07:35:59.822Z,99282.66
2018-03-19T07:38:27.642Z,99288.84
2018-03-19T07:40:55.387Z,99284.98
2018-03-19T07:43:22.983Z,99276.83
2018-03-19T07:45:50.638Z,99285.64
2018-03-19T07:48:18.290Z,99274.03
2018-03-19T07:50:45.872Z,99272.81
2018-03-19T07:53:13.618Z,99273.20
2018-03-19T07:55:41.197Z,99262.33
2018-03-19T07:58:08.948Z,99259.45
2018-03-19T08:00:36.596Z,99261.36
2018-03-19T08:03:04.170Z,99264.56
2018-03-19T08:05:31.927Z,99266.63
2018-03-19T08:07:59.587Z,99268.52
2018-03-19T08:10:27.241Z,99263.57
2018-03-19T08:12:54.823Z,99249.05
2018-03-19T08:15:22.571Z,99252.38
2018-03-19T08:17:50.146Z,99248.89
2018-03-19T08:20:17.966Z,99246.06
2018-03-19T08:22:45.769Z,99237.56
2018-03-19T08:25:13.441Z,99227.42
2018-03-19T08:27:41.147Z,99229.91
2018-03-19T08:30:08.744Z,99220.03
2018-03-19T08:32:36.411Z,99212.58
2018-03-19T08:35:04.088Z,99210.80
2018-03-19T08:37:31.711Z,99202.29
2018-03-19T08:39:59.414Z,99199.74
2018-03-19T08:42:27.264Z,99201.94
2018-03-19T08:44:54.878Z,99198.07
2018-03-19T08:47:22.728Z,99188.95
2018-03-19T08:49:50.472Z,99187.17
2018-03-19T08:52:18.118Z,99183.85
2018-03-19T08:54:45.706Z,99173.70
2018-03-19T08:57:13.287Z,99165.55
2018-03-19T08:59:41.122Z,99153.17
2018-03-19T09:02:08.781Z,99167.00
2018-03-19T09:04:36.357Z,99168.46
2018-03-19T09:07:04.315Z,99167.79
2018-03-19T09:09:31.956Z,99158.00
2018-03-19T09:11:59.546Z,99152.26
2018-03-19T09:14:27.289Z,99157.36
2018-03-19T09:16:54.869Z,99159.68
2018-03-19T09:19:22.628Z,99150.13
2018-03-19T09:21:50.460Z,99140.69
2018-03-19T09:24:18.041Z,99147.92
2018-03-19T09:26:45.611Z,99150.34
2018-03-19T09:29:13.263Z,99148.02
2018-03-19T09:31:40.884Z,99152.94
2018-03-19T09:34:08.601Z,99159.22
2018-03-19T09:36:36.491Z,99156.30
2018-03-19T09:39:04.333Z,99145.63
2018-03-19T09:41:32.042Z,99145.26
2018-03-19T09:43:59.672Z,99148.90
2018-03-19T09:46:27.322Z,99143.08
2018-03-19T09:48:54.906Z,99144.94
2018-03-19T09:51:22.745Z,99154.32
2018-03-19T09:53:50.322Z,99146.41
2018-03-19T09:56:18.142Z,99142.38
2018-03-19T09:58:45.925Z,99136.15
2018-03-19T10:01:13.601Z,99139.81
2018-03-19T10:03:41.442Z,99137.58
2018-03-19T10:06:09.182Z,99144.73
2018-03-19T10:08:36.766Z,99130.97
2018-03-19T10:11:04.453Z,99131.25
2018-03-19T10:13:32.107Z,99132.07
2018-03-19T10:15:59.778Z,99119.36
2018-03-19T10:18:27.358Z,99114.80
2018-03-19T10:20:54.983Z,99112.79
2018-03-19T10:23:22.756Z,99113.70
2018-03-19T10:25:50.345Z,99113.41
2018-03-19T10:28:18.070Z,99109.45
2018-03-19T10:30:45.663Z,99106.78
2018-03-19T10:33:13.248Z,99103.34
2018-03-19T10:35:41.256Z,99093.59
2018-03-19T10:38:08.902Z,99080.39
2018-03-19T10:40:36.606Z,99082.29
2018-03-19T10:43:04.377Z,99074.55
2018-03-19T10:45:31.959Z,99083.20
2018-03-19T10:47:59.538Z,99074.64
2018-03-19T10:50:27.350Z,99071.77
2018-03-19T10:52:55.102Z,99077.67
2018-03-19T10:55:22.771Z,99084.69
2018-03-19T10:57:50.435Z,99094.36
2018-03-19T11:00:18.016Z,99104.06
2018-03-19T11:02:51.288Z,99102.28
2018-03-19T11:05:24.478Z,99109.41
2018-03-19T11:07:57.563Z,99106.08
2018-03-19T11:10:25.376Z,99106.55
2018-03-19T11:12:53.221Z,99098.72
2018-03-19T11:15:20.966Z,99078.51
2018-03-19T11:17:48.749Z,99073.60
2018-03-19T11:20:16.319Z,99068.20
2018-03-19T11:22:44.062Z,99068.59
2018-03-19T11:25:11.738Z,99060.47
2018-03-19T11:27:39.326Z,99068.05
2018-03-19T11:30:07.052Z,99059.64
2018-03-19T11:32:34.654Z,99065.80
2018-03-19T11:35:02.243Z,99071.67
2018-03-19T11:37:30.351Z,99018.81
2018-03-19T11:39:57.943Z,99075.19
2018-03-19T11:42:25.674Z,99070.77
2018-03-19T11:44:53.372Z,99054.66
2018-03-19T11:47:21.123Z,99029.94
2018-03-19T11:49:48.765Z,99022.52
2018-03-19T11:52:16.518Z,99023.25
2018-03-19T11:54:44.192Z,99022.50
2018-03-19T11:57:11.842Z,99028.98
2018-03-19T11:59:39.532Z,99030.61
2018-03-19T12:02:07.898Z,99019.19
2018-03-19T12:04:35.728Z,99006.32
2018-03-19T12:07:03.531Z,99006.58
2018-03-19T12:09:31.189Z,98997.26
2018-03-19T12:11:58.772Z,99002.05
2018-03-19T12:14:26.385Z,99008.23
2018-03-19T12:16:53.968Z,99035.09
2018-03-19T12:19:21.585Z,99036.48
2018-03-19T12:21:49.197Z,99023.58
2018-03-19T12:24:16.815Z,99038.55
2018-03-19T12:26:44.438Z,99020.70
2018-03-19T12:29:12.049Z,99019.49
2018-03-19T12:31:39.630Z,99010.27
2018-03-19T12:34:07.199Z,99004.79
2018-03-19T12:36:34.814Z,99007.34
2018-03-19T12:39:02.388Z,99008.22
2018-03-19T12:41:30.007Z,99005.41
2018-03-19T12:43:57.625Z,98998.52
2018-03-19T12:46:25.216Z,98994.24
2018-03-19T12:48:52.819Z,98986.87
2018-03-19T12:51:20.507Z,98976.08
2018-03-19T12:53:48.104Z,98973.16
2018-03-19T12:56:15.733Z,98973.63
2018-03-19T12:58:43.352Z,98974.11
2018-03-19T13:01:10.934Z,98965.30
2018-03-19T13:03:38.529Z,98970.05
2018-03-19T13:06:06.149Z,98978.59
2018-03-19T13:08:33.738Z,98985.45
2018-03-19T13:11:01.330Z,98984.50
2018-03-19T13:13:28.954Z,98991.60
2018-03-19T13:15:56.539Z,98999.81
2018-03-19T13:18:24.111Z,98998.02
2018-03-19T13:20:51.777Z,98992.41
2018-03-19T13:23:19.370Z,99002.08
2018-03-19T13:25:47.006Z,98994.91
2018-03-19T13:28:14.618Z,98988.73
2018-03-19T13:30:42.255Z,98998.42
2018-03-19T13:33:09.857Z,98993.94
2018-03-19T13:35:37.479Z,98989.20
2018-03-19T13:38:05.065Z,98979.13
2018-03-19T13:40:32.694Z,98974.61
2018-03-19T13:43:00.321Z,98984.02
2018-03-19T13:45:27.904Z,98989.46
2018-03-19T13:47:55.486Z,98984.30
2018-03-19T13:50:23.176Z,98981.04
2018-03-19T13:52:50.722Z,98957.86
2018-03-19T13:55:18.338Z,98983.44
2018-03-19T13:57:45.973Z,98974.06
2018-03-19T14:00:13.557Z,98961.38
2018-03-19T14:02:41.144Z,98956.84
2018-03-19T14:05:08.768Z,98965.51
2018-03-19T14:07:36.356Z,98947.67
2018-03-19T14:10:03.933Z,98954.71
2018-03-19T14:12:31.549Z,98960.05
2018-03-19T14:14:59.147Z,98964.73
2018-03-19T14:17:26.733Z,98961.62
2018-03-19T14:19:54.336Z,98965.80
2018-03-19T14:22:21.963Z,98963.21
2018-03-19T14:24:49.577Z,98957.09
2018-03-19T14:27:17.189Z,98972.03
2018-03-19T14:29:44.771Z,98969.45
2018-03-19T14:32:12.362Z,98968.06
2018-03-19T14:34:39.991Z,98967.81
2018-03-19T14:37:07.588Z,98970.32
2018-03-19T14:39:35.171Z,98970.16
2018-03-19T14:42:02.790Z,98975.03
2018-03-19T14:44:30.481Z,98955.92
2018-03-19T14:46:58.322Z,98954.15
2018-03-19T14:49:27.457Z,98959.49
2018-03-19T14:51:55.763Z,98953.36
2018-03-19T14:54:23.521Z,98949.50
2018-03-19T14:56:52.696Z,98953.92
2018-03-19T14:59:21.610Z,98957.70
2018-03-19T15:01:50.723Z,98954.23
2018-03-19T15:04:20.307Z,98940.23
2018-03-19T15:06:49.277Z,98936.77
2018-03-19T15:09:18.623Z,98947.19
2018-03-19T15:11:46.706Z,98948.77
2018-03-19T15:14:16.200Z,98945.72
2018-03-19T15:16:45.126Z,98947.63
2018-03-19T15:19:14.698Z,98938.77
2018-03-19T15:21:43.867Z,98941.59
2018-03-19T15:24:13.249Z,98946.19
2018-03-19T15:26:42.922Z,98947.53
2018-03-19T15:29:12.047Z,98949.55
2018-03-19T15:31:41.105Z,98942.90
2018-03-19T15:34:10.678Z,98943.34
2018-03-19T15:36:40.031Z,98941.95
2018-03-19T15:39:08.801Z,98939.53
2018-03-19T15:41:38.309Z,98934.98
2018-03-19T15:44:05.959Z,98943.09
2018-03-19T15:46:33.695Z,98947.89
2018-03-19T15:49:01.377Z,98940.53
2018-03-19T15:51:28.983Z,98941.97
2018-03-19T15:53:56.707Z,98945.71
2018-03-19T15:56:24.348Z,98942.16
2018-03-19T15:58:51.958Z,98935.23
2018-03-19T16:01:19.536Z,98938.83
2018-03-19T16:03:47.340Z,98944.52
2018-03-19T16:06:14.918Z,98942.29
2018-03-19T16:08:42.673Z,98949.69
2018-03-19T16:11:10.278Z,98953.55
2018-03-19T16:13:38.016Z,98944.52
2018-03-19T16:16:05.681Z,98946.20
2018-03-19T16:18:33.339Z,98945.84
2018-03-19T16:21:00.984Z,98941.44
2018-03-19T16:23:28.642Z,98944.11
2018-03-19T16:25:56.274Z,98951.63
2018-03-19T16:28:23.856Z,98944.42
2018-03-19T16:30:51.435Z,98950.11
2018-03-19T16:33:19.084Z,98951.11
2018-03-19T16:35:46.660Z,98949.36
2018-03-19T16:38:14.417Z,98963.84
2018-03-19T16:40:42.071Z,98955.41
2018-03-19T16:43:09.745Z,98954.48
2018-03-19T16:45:37.323Z,98948.77
2018-03-19T16:48:05.086Z,98955.16
2018-03-19T16:50:32.673Z,98959.72
2018-03-19T16:53:00.258Z,98959.28
2018-03-19T16:55:28.070Z,98955.28
2018-03-19T16:57:55.727Z,98959.88
2018-03-19T17:00:23.314Z,98953.05
2018-03-19T17:02:51.041Z,98949.26
2018-03-19T17:05:18.706Z,98946.30
2018-03-19T17:07:46.385Z,98928.93
2018-03-19T17:10:14.001Z,98928.78
2018-03-19T17:12:41.849Z,98926.15
2018-03-19T17:15:09.572Z,98930.12
2018-03-19T17:17:37.202Z,98933.81
2018-03-19T17:20:04.794Z,98935.67
2018-03-19T17:22:32.543Z,98931.48
2018-03-19T17:25:00.198Z,98925.84
2018-03-19T17:27:27.867Z,98928.50
2018-03-19T17:29:55.551Z,98926.10
2018-03-19T17:32:23.324Z,98916.63
2018-03-19T17:34:50.832Z,98926.47
2018-03-19T17:37:18.402Z,98916.99
2018-03-19T17:39:46.021Z,98912.36
2018-03-19T17:42:13.614Z,98913.80
2018-03-19T17:44:41.242Z,98914.83
2018-03-19T17:47:09.187Z,98906.96
2018-03-19T17:49:36.838Z,98910.00
2018-03-19T17:52:04.616Z,98925.00
2018-03-19T17:54:32.234Z,98929.33
2018-03-19T17:56:59.831Z,98895.72
2018-03-19T17:59:28.292Z,98907.41
2018-03-19T18:01:56.169Z,98911.78
2018-03-19T18:04:23.751Z,98897.41
2018-03-19T18:06:51.328Z,98884.42
2018-03-19T18:09:19.104Z,98887.11
2018-03-19T18:11:46.687Z,98880.11
2018-03-19T18:14:14.271Z,98877.59
2018-03-19T18:16:41.929Z,98868.05
2018-03-19T18:19:09.593Z,98892.55
2018-03-19T18:21:37.168Z,98893.55
2018-03-19T18:24:04.939Z,98886.54
2018-03-19T18:26:32.526Z,98868.69
2018-03-19T18:29:00.093Z,98900.16
2018-03-19T18:31:28.496Z,98901.45
2018-03-19T18:33:56.196Z,98893.52
2018-03-19T18:36:23.760Z,98885.50
2018-03-19T18:38:51.354Z,98901.56
2018-03-19T18:41:18.938Z,98906.73
2018-03-19T18:43:46.635Z,98912.02
2018-03-19T18:46:14.286Z,98927.95
2018-03-19T18:48:41.950Z,98916.29
2018-03-19T18:51:09.525Z,98928.30
2018-03-19T18:53:37.148Z,98931.95
2018-03-19T18:56:04.768Z,98933.05
2018-03-19T18:58:32.387Z,98940.44
2018-03-19T19:01:00.012Z,98936.69
2018-03-19T19:03:27.716Z,98941.03
2018-03-19T19:05:56.187Z,98946.66
2018-03-19T19:08:23.789Z,98947.73
2018-03-19T19:10:51.618Z,98948.95
2018-03-19T19:13:19.204Z,98940.16
2018-03-19T19:15:46.814Z,98941.02
2018-03-19T19:18:14.420Z,98933.30
2018-03-19T19:20:41.995Z,98946.12
2018-03-19T19:23:09.630Z,98943.52
2018-03-19T19:25:37.294Z,98945.72
2018-03-19T19:28:04.896Z,98951.17
2018-03-19T19:30:32.512Z,98948.84
2018-03-19T19:33:00.279Z,98948.53
2018-03-19T19:35:27.875Z,98952.30
2018-03-19T19:37:55.599Z,98959.78
2018-03-19T19:40:23.178Z,98953.39
2018-03-19T19:42:50.748Z,98943.36
2018-03-19T19:45:18.340Z,98947.83
2018-03-19T19:47:46.018Z,98949.84
2018-03-19T19:50:13.653Z,98945.05
2018-03-19T19:52:41.262Z,98943.73
2018-03-19T19:55:08.889Z,98934.59
2018-03-19T19:57:36.494Z,98930.25
2018-03-19T20:00:04.277Z,98934.17
2018-03-19T20:02:31.834Z,98923.52
2018-03-19T20:04:59.413Z,98921.72
2018-03-19T20:07:27.011Z,98931.53
2018-03-19T20:09:54.572Z,98925.56
2018-03-19T20:12:22.142Z,98922.21
2018-03-19T20:14:49.743Z,98935.30
2018-03-19T20:17:17.381Z,98939.84
2018-03-19T20:19:45.057Z,98933.10
2018-03-19T20:22:12.651Z,98928.58
2018-03-19T20:24:40.215Z,98914.80
2018-03-19T20:27:07.786Z,98912.53
2018-03-19T20:29:35.534Z,98921.78
2018-03-19T20:32:03.145Z,98922.33
2018-03-19T20:34:30.716Z,98916.84
2018-03-19T20:36:58.327Z,98902.30
2018-03-19T20:39:25.901Z,98906.57
2018-03-19T20:41:53.473Z,98905.88
2018-03-19T20:44:21.095Z,98903.94
2018-03-19T20:46:48.703Z,98900.60
2018-03-19T20:49:16.283Z,98901.05
2018-03-19T20:51:43.904Z,98903.22
2018-03-19T20:54:11.915Z,98905.55
2018-03-19T20:56:39.498Z,98880.19
2018-03-19T20:59:07.122Z,98903.00
2018-03-19T21:01:34.694Z,98899.75
2018-03-19T21:04:02.364Z,98881.61
2018-03-19T21:06:30.044Z,98870.32
2018-03-19T21:08:57.612Z,98881.01
2018-03-19T21:11:25.194Z,98879.34
2018-03-19T21:13:52.808Z,98873.48
2018-03-19T21:16:20.363Z,98869.03
2018-03-19T21:18:47.915Z,98867.77
2018-03-19T21:21:15.668Z,98871.41
2018-03-19T21:23:43.230Z,98873.86
2018-03-19T21:26:10.809Z,98867.84
2018-03-19T21:28:38.412Z,98856.77
2018-03-19T21:31:06.137Z,98855.91
2018-03-19T21:33:33.782Z,98853.67
2018-03-19T21:36:01.384Z,98858.48
2018-03-19T21:38:28.953Z,98851.16
2018-03-19T21:40:56.513Z,98848.45
2018-03-19T21:43:24.159Z,98855.45
2018-03-19T21:45:51.710Z,98855.97
2018-03-19T21:48:19.290Z,98856.77
2018-03-19T21:50:46.902Z,98860.20
2018-03-19T21:53:14.478Z,98869.66
2018-03-19T21:55:42.058Z,98873.01
2018-03-19T21:58:09.641Z,98874.83
2018-03-19T22:00:37.208Z,98876.09
2018-03-19T22:03:04.775Z,98870.08
2018-03-19T22:05:32.384Z,98870.08
2018-03-19T22:07:59.959Z,98867.16
2018-03-19T22:10:27.517Z,98861.32
2018-03-19T22:12:55.127Z,98858.84
2018-03-19T22:15:22.832Z,98853.63
2018-03-19T22:17:50.399Z,98852.09
2018-03-19T22:20:18.000Z,98851.48
2018-03-19T22:22:45.822Z,98857.41
2018-03-19T22:25:13.401Z,98866.19
2018-03-19T22:27:41.025Z,98864.95
2018-03-19T22:30:08.589Z,98860.80
2018-03-19T22:32:36.166Z,98865.30
2018-03-19T22:35:03.871Z,98864.48
2018-03-19T22:37:31.437Z,98865.91
2018-03-19T22:39:59.002Z,98859.08
2018-03-19T22:42:26.606Z,98865.87
2018-03-19T22:44:54.364Z,98861.02
2018-03-19T22:47:22.203Z,98852.70
2018-03-19T22:49:50.082Z,98853.38
2018-03-19T22:52:17.655Z,98850.58
2018-03-19T22:54:45.227Z,98850.21
2018-03-19T22:57:12.881Z,98850.63
2018-03-19T22:59:40.545Z,98847.53
2018-03-19T23:02:08.127Z,98841.77
2018-03-19T23:04:47.519Z,98851.33
2018-03-19T23:07:15.091Z,98842.30
2018-03-19T23:09:42.660Z,98841.30
2018-03-19T23:12:10.300Z,98845.62
2018-03-19T23:14:37.879Z,98843.98
2018-03-19T23:17:05.528Z,98841.89
2018-03-19T23:19:33.128Z,98845.62
2018-03-19T23:22:00.752Z,98845.73
2018-03-19T23:24:28.302Z,98846.54
2018-03-19T23:26:55.926Z,98843.97
2018-03-19T23:29:23.504Z,98845.39
2018-03-19T23:31:51.103Z,98846.83
2018-03-19T23:34:18.692Z,98847.12
2018-03-19T23:36:46.357Z,98845.68
2018-03-19T23:39:14.022Z,98850.25
2018-03-19T23:41:41.625Z,98845.62
2018-03-19T23:44:09.198Z,98846.97
2018-03-19T23:46:36.761Z,98844.75
2018-03-19T23:49:04.373Z,98852.18
2018-03-19T23:51:31.950Z,98846.70
2018-03-19T23:53:59.512Z,98852.13
2018-03-19T23:56:27.109Z,98852.30
2018-03-19T23:58:54.679Z,98852.00
